Aeroporto :
LOGIN :

Iscrizione | Disclaimer

   EN    FR    IT 

 










Sommario :    VFR   VFR Marginale   IFR   IFR Intensivo   IFR Molto Intensivo
Visibilità : 
Base nubi : 
>= 8 km
>= 3000ft
5 / 8 km
1000 / 3000 ft
1500m / 5 km
500 / 1000 ft
800 / 1500m
200 / 500 ft
< 800m
< 200 ft
Simboli :   Temporali  Nebbia  Neve Forte  Precipitazioni Forti  Vento > 20 kt
SIGMETs :   Varie  Temporali  Ghiacco  Turbolenza  Onda orograficha  Ceneri Vulcaniche






- Altitudine del aeroporto : 160 ft
- Codice IATA : FMO


EDDG - Münster Osnabrück Int.

ULTIMO METAR :
  • 260550Z AUTO VRB02KT CAVOK 16/13 Q1017 BECMG 16006KT

METARs OBSOLETI :
  • 260520Z AUTO VRB02KT CAVOK 15/13 Q1017 NOSIG
  • 260450Z AUTO 08003KT 040V140 6000 NSC 13/12 Q1017 NOSIG
  • 260420Z AUTO 06001KT 7000 NCD 11/11 Q1017 NOSIG
  • 260350Z AUTO VRB01KT 2200 0300 R25/0750D BCFG NCD 10/10 Q1017 TEMPO 6000
  • 260320Z AUTO VRB01KT 4100 BR NCD 10/10 Q1017 TEMPO 2500 BCFG
  • 260250Z AUTO VRB01KT 6000 NCD 11/10 Q1017 TEMPO 3000 BCFG
  • 260220Z AUTO VRB02KT 0550 0500 R25/0900U FG NCD 11/11 Q1017 TEMPO 2000 BCFG
  • 260150Z AUTO VRB01KT 3700 BR NCD 11/10 Q1017 TEMPO 1500 BCFG
  • 260120Z AUTO VRB01KT 8000 1500 BR NCD 11/11 Q1017 TEMPO 3000 BCFG

TAF TAF EDDG
Valido dal 26 a 06 ore il 27 a 06 ore UTC


260500Z 2606/2706 VRB02KT CAVOK
BECMG 2606/2609 16007KT
PROB40
TEMPO 2611/2616 SHRA SCT040CB
PROB30
TEMPO 2619/2622 19015G30KT 4000 TSRA BKN030CB
BECMG 2620/2622 VRB03KT
TEMPO 2703/2706 2500 BCFG



MetMap, La meteo Aeronautica in un colpo d'occhio ! - Copyright ORBIFLY Dicembre 2007 - Disclaimer

ORBIFLY MET'MAP TEAM :

Programmazione e sviluppo : Alexandra Zaïnal
Concezione : Baudouin d'Aumeries
Supporto tecnico e logistico : Manuel Goepfert
Aiuto : Marc-Olivier Méhu
Aiuto per la traduzione : Arnaldo La Scala




FONTI E CREDITI :

   NOAA